sensor_id;sensor_type;location;lat;lon;timestamp;pressure;altitude;pressure_sealevel;temperature;humidity
31337;BME280;22846;42.654;23.314;2022-07-23T00:01:15;94777.53;;;28.03;36.55
31337;BME280;22846;42.654;23.314;2022-07-23T00:03:41;94777.97;;;28.02;36.52
31337;BME280;22846;42.654;23.314;2022-07-23T00:06:06;94776.44;;;28.01;36.48
31337;BME280;22846;42.654;23.314;2022-07-23T00:08:31;94778.44;;;28.00;36.40
31337;BME280;22846;42.654;23.314;2022-07-23T00:10:57;94772.31;;;27.96;36.23
31337;BME280;22846;42.654;23.314;2022-07-23T00:13:22;94777.06;;;27.96;35.95
31337;BME280;22846;42.654;23.314;2022-07-23T00:15:47;94786.19;;;27.93;36.05
31337;BME280;22846;42.654;23.314;2022-07-23T00:18:13;94781.91;;;27.92;35.67
31337;BME280;22846;42.654;23.314;2022-07-23T00:20:38;94787.13;;;27.90;35.52
31337;BME280;22846;42.654;23.314;2022-07-23T00:23:03;94782.06;;;27.88;35.28
31337;BME280;22846;42.654;23.314;2022-07-23T00:25:29;94795.06;;;27.88;35.22
31337;BME280;22846;42.654;23.314;2022-07-23T00:27:54;94796.28;;;27.87;34.98
31337;BME280;22846;42.654;23.314;2022-07-23T00:30:19;94794.75;;;27.86;34.98
31337;BME280;22846;42.654;23.314;2022-07-23T00:32:54;94801.44;;;27.85;35.17
31337;BME280;22846;42.654;23.314;2022-07-23T00:35:21;94799.63;;;27.82;35.22
31337;BME280;22846;42.654;23.314;2022-07-23T00:37:47;94798.09;;;27.81;35.02
31337;BME280;22846;42.654;23.314;2022-07-23T00:40:13;94794.56;;;27.80;35.03
31337;BME280;22846;42.654;23.314;2022-07-23T00:42:38;94793.03;;;27.79;34.77
31337;BME280;22846;42.654;23.314;2022-07-23T00:45:04;94786.78;;;27.79;34.86
31337;BME280;22846;42.654;23.314;2022-07-23T00:47:30;94788.00;;;27.78;34.69
31337;BME280;22846;42.654;23.314;2022-07-23T00:49:55;94792.75;;;27.77;34.83
31337;BME280;22846;42.654;23.314;2022-07-23T00:52:20;94785.72;;;27.76;34.86
31337;BME280;22846;42.654;23.314;2022-07-23T00:54:46;94787.69;;;27.76;34.85
31337;BME280;22846;42.654;23.314;2022-07-23T00:57:11;94787.69;;;27.76;35.11
31337;BME280;22846;42.654;23.314;2022-07-23T00:59:38;94779.91;;;27.74;35.11
31337;BME280;22846;42.654;23.314;2022-07-23T01:02:03;94788.91;;;27.75;35.25
31337;BME280;22846;42.654;23.314;2022-07-23T01:04:28;94783.41;;;27.75;35.35
31337;BME280;22846;42.654;23.314;2022-07-23T01:06:54;94784.63;;;27.74;35.21
31337;BME280;22846;42.654;23.314;2022-07-23T01:09:19;94781.88;;;27.74;35.54
31337;BME280;22846;42.654;23.314;2022-07-23T01:11:44;94786.63;;;27.73;35.36
31337;BME280;22846;42.654;23.314;2022-07-23T01:14:11;94783.88;;;27.73;35.38
31337;BME280;22846;42.654;23.314;2022-07-23T01:16:36;94787.09;;;27.72;35.36
31337;BME280;22846;42.654;23.314;2022-07-23T01:19:02;94776.53;;;27.70;35.63
31337;BME280;22846;42.654;23.314;2022-07-23T01:21:29;94777.75;;;27.69;35.44
31337;BME280;22846;42.654;23.314;2022-07-23T01:23:55;94784.50;;;27.68;35.76
31337;BME280;22846;42.654;23.314;2022-07-23T01:26:20;94773.50;;;27.68;35.63
31337;BME280;22846;42.654;23.314;2022-07-23T01:28:45;94781.44;;;27.66;35.71
31337;BME280;22846;42.654;23.314;2022-07-23T01:31:11;94775.94;;;27.66;35.81
31337;BME280;22846;42.654;23.314;2022-07-23T01:33:36;94779.13;;;27.65;35.80
31337;BME280;22846;42.654;23.314;2022-07-23T01:36:01;94779.13;;;27.65;36.03
31337;BME280;22846;42.654;23.314;2022-07-23T01:38:26;94782.34;;;27.63;35.72
31337;BME280;22846;42.654;23.314;2022-07-23T01:40:52;94772.56;;;27.62;35.87
31337;BME280;22846;42.654;23.314;2022-07-23T01:43:17;94772.69;;;27.59;35.59
31337;BME280;22846;42.654;23.314;2022-07-23T01:45:42;94773.16;;;27.57;35.82
31337;BME280;22846;42.654;23.314;2022-07-23T01:48:09;94780.31;;;27.55;35.69
31337;BME280;22846;42.654;23.314;2022-07-23T01:50:34;94778.00;;;27.53;35.92
31337;BME280;22846;42.654;23.314;2022-07-23T01:53:00;94772.22;;;27.51;35.99
31337;BME280;22846;42.654;23.314;2022-07-23T01:55:25;94774.19;;;27.51;36.04
31337;BME280;22846;42.654;23.314;2022-07-23T01:57:51;94778.94;;;27.50;36.01
31337;BME280;22846;42.654;23.314;2022-07-23T02:00:16;94770.38;;;27.48;35.95
31337;BME280;22846;42.654;23.314;2022-07-23T02:02:41;94773.59;;;27.47;36.19
31337;BME280;22846;42.654;23.314;2022-07-23T02:05:07;94774.81;;;27.46;35.90
31337;BME280;22846;42.654;23.314;2022-07-23T02:07:32;94779.97;;;27.44;35.82
31337;BME280;22846;42.654;23.314;2022-07-23T02:09:57;94781.19;;;27.43;35.97
31337;BME280;22846;42.654;23.314;2022-07-23T02:12:23;94777.69;;;27.42;35.91
31337;BME280;22846;42.654;23.314;2022-07-23T02:14:48;94779.34;;;27.40;35.97
31337;BME280;22846;42.654;23.314;2022-07-23T02:17:13;94782.09;;;27.40;35.76
31337;BME280;22846;42.654;23.314;2022-07-23T02:19:38;94784.53;;;27.38;35.62
31337;BME280;22846;42.654;23.314;2022-07-23T02:22:04;94785.75;;;27.37;35.28
31337;BME280;22846;42.654;23.314;2022-07-23T02:24:29;94779.94;;;27.35;35.38
31337;BME280;22846;42.654;23.314;2022-07-23T02:26:54;94782.69;;;27.35;35.51
31337;BME280;22846;42.654;23.314;2022-07-23T02:29:19;94785.13;;;27.33;35.87
31337;BME280;22846;42.654;23.314;2022-07-23T02:31:45;94784.38;;;27.33;36.11
31337;BME280;22846;42.654;23.314;2022-07-23T02:34:11;94780.53;;;27.30;36.14
31337;BME280;22846;42.654;23.314;2022-07-23T02:36:37;94784.03;;;27.31;36.18
31337;BME280;22846;42.654;23.314;2022-07-23T02:39:02;94782.50;;;27.30;36.07
31337;BME280;22846;42.654;23.314;2022-07-23T02:41:27;94782.97;;;27.28;36.34
31337;BME280;22846;42.654;23.314;2022-07-23T02:43:53;94784.94;;;27.28;36.19
31337;BME280;22846;42.654;23.314;2022-07-23T02:46:18;94782.97;;;27.28;36.34
31337;BME280;22846;42.654;23.314;2022-07-23T02:48:43;94785.25;;;27.30;36.34
31337;BME280;22846;42.654;23.314;2022-07-23T02:51:08;94784.50;;;27.29;36.31
31337;BME280;22846;42.654;23.314;2022-07-23T02:53:34;94795.47;;;27.29;36.46
31337;BME280;22846;42.654;23.314;2022-07-23T02:55:59;94787.69;;;27.28;36.56
31337;BME280;22846;42.654;23.314;2022-07-23T02:58:25;94789.66;;;27.27;36.53
31337;BME280;22846;42.654;23.314;2022-07-23T03:00:51;94796.69;;;27.28;36.37
31337;BME280;22846;42.654;23.314;2022-07-23T03:03:17;94794.38;;;27.27;36.29
31337;BME280;22846;42.654;23.314;2022-07-23T03:05:42;94804.59;;;27.26;36.35
31337;BME280;22846;42.654;23.314;2022-07-23T03:08:07;94807.34;;;27.26;36.28
31337;BME280;22846;42.654;23.314;2022-07-23T03:10:32;94799.13;;;27.26;36.41
31337;BME280;22846;42.654;23.314;2022-07-23T03:12:58;94804.28;;;27.24;36.50
31337;BME280;22846;42.654;23.314;2022-07-23T03:15:23;94806.28;;;27.24;36.71
31337;BME280;22846;42.654;23.314;2022-07-23T03:17:48;94817.69;;;27.22;36.74
31337;BME280;22846;42.654;23.314;2022-07-23T03:20:14;94816.94;;;27.22;36.85
31337;BME280;22846;42.654;23.314;2022-07-23T03:22:39;94821.66;;;27.21;36.80
31337;BME280;22846;42.654;23.314;2022-07-23T03:25:04;94813.13;;;27.19;37.05
31337;BME280;22846;42.654;23.314;2022-07-23T03:27:30;94824.84;;;27.20;37.00
31337;BME280;22846;42.654;23.314;2022-07-23T03:29:56;94824.09;;;27.19;37.14
31337;BME280;22846;42.654;23.314;2022-07-23T03:32:22;94815.53;;;27.17;37.20
31337;BME280;22846;42.654;23.314;2022-07-23T03:34:47;94822.56;;;27.18;37.04
31337;BME280;22846;42.654;23.314;2022-07-23T03:37:13;94828.06;;;27.18;36.94
31337;BME280;22846;42.654;23.314;2022-07-23T03:39:38;94827.28;;;27.18;37.05
31337;BME280;22846;42.654;23.314;2022-07-23T03:42:03;94820.28;;;27.17;36.71
31337;BME280;22846;42.654;23.314;2022-07-23T03:44:29;94824.97;;;27.16;36.69
31337;BME280;22846;42.654;23.314;2022-07-23T03:46:54;94832.47;;;27.16;36.65
31337;BME280;22846;42.654;23.314;2022-07-23T03:49:19;94826.97;;;27.16;36.51
31337;BME280;22846;42.654;23.314;2022-07-23T03:51:44;94824.66;;;27.14;36.77
31337;BME280;22846;42.654;23.314;2022-07-23T03:54:10;94828.19;;;27.15;36.24
31337;BME280;22846;42.654;23.314;2022-07-23T03:56:35;94825.44;;;27.15;36.31
31337;BME280;22846;42.654;23.314;2022-07-23T03:59:00;94835.22;;;27.16;36.13
31337;BME280;22846;42.654;23.314;2022-07-23T04:01:26;94833.69;;;27.15;36.38
31337;BME280;22846;42.654;23.314;2022-07-23T04:03:51;94832.91;;;27.14;36.28
31337;BME280;22846;42.654;23.314;2022-07-23T04:06:16;94832.91;;;27.14;36.45
31337;BME280;22846;42.654;23.314;2022-07-23T04:08:42;94824.66;;;27.14;36.80
31337;BME280;22846;42.654;23.314;2022-07-23T04:11:07;94828.19;;;27.15;36.59
31337;BME280;22846;42.654;23.314;2022-07-23T04:13:32;94828.19;;;27.15;36.67
31337;BME280;22846;42.654;23.314;2022-07-23T04:15:58;94832.00;;;27.17;36.91
31337;BME280;22846;42.654;23.314;2022-07-23T04:18:23;94828.06;;;27.18;37.04
31337;BME280;22846;42.654;23.314;2022-07-23T04:20:49;94833.41;;;27.22;37.32
31337;BME280;22846;42.654;23.314;2022-07-23T04:23:15;94830.97;;;27.24;37.27
31337;BME280;22846;42.654;23.314;2022-07-23T04:25:40;94838.28;;;27.27;37.40
31337;BME280;22846;42.654;23.314;2022-07-23T04:28:06;94839.69;;;27.31;37.62
31337;BME280;22846;42.654;23.314;2022-07-23T04:30:31;94845.03;;;27.34;37.31
31337;BME280;22846;42.654;23.314;2022-07-23T04:32:56;94842.19;;;27.38;37.41
31337;BME280;22846;42.654;23.314;2022-07-23T04:35:21;94852.22;;;27.41;37.21
31337;BME280;22846;42.654;23.314;2022-07-23T04:37:47;94843.09;;;27.44;37.27
31337;BME280;22846;42.654;23.314;2022-07-23T04:40:12;94845.72;;;27.47;37.19
31337;BME280;22846;42.654;23.314;2022-07-23T04:42:38;94844.81;;;27.50;37.10
31337;BME280;22846;42.654;23.314;2022-07-23T04:45:03;94843.47;;;27.55;37.10
31337;BME280;22846;42.654;23.314;2022-07-23T04:47:29;94846.81;;;27.59;36.84
31337;BME280;22846;42.654;23.314;2022-07-23T04:49:54;94842.75;;;27.63;36.91
31337;BME280;22846;42.654;23.314;2022-07-23T04:52:19;94850.84;;;27.67;36.87
31337;BME280;22846;42.654;23.314;2022-07-23T04:54:45;94851.47;;;27.71;37.01
31337;BME280;22846;42.654;23.314;2022-07-23T04:57:10;94856.03;;;27.74;36.94
31337;BME280;22846;42.654;23.314;2022-07-23T04:59:35;94855.94;;;27.77;36.98
31337;BME280;22846;42.654;23.314;2022-07-23T05:02:00;94856.53;;;27.81;37.12
31337;BME280;22846;42.654;23.314;2022-07-23T05:04:26;94852.88;;;27.84;37.17
31337;BME280;22846;42.654;23.314;2022-07-23T05:06:51;94851.97;;;27.87;36.98
31337;BME280;22846;42.654;23.314;2022-07-23T05:09:16;94853.06;;;27.90;36.94
31337;BME280;22846;42.654;23.314;2022-07-23T05:11:41;94850.16;;;27.93;37.00
31337;BME280;22846;42.654;23.314;2022-07-23T05:14:07;94854.28;;;27.98;36.96
31337;BME280;22846;42.654;23.314;2022-07-23T05:16:32;94854.16;;;28.01;37.10
31337;BME280;22846;42.654;23.314;2022-07-23T05:18:57;94855.97;;;28.04;37.05
31337;BME280;22846;42.654;23.314;2022-07-23T05:21:23;94860.56;;;28.07;37.05
31337;BME280;22846;42.654;23.314;2022-07-23T05:23:48;94856.91;;;28.10;36.98
31337;BME280;22846;42.654;23.314;2022-07-23T05:26:13;94859.50;;;28.14;36.81
31337;BME280;22846;42.654;23.314;2022-07-23T05:28:38;94856.63;;;28.17;36.94
31337;BME280;22846;42.654;23.314;2022-07-23T05:31:04;94858.47;;;28.20;37.11
31337;BME280;22846;42.654;23.314;2022-07-23T05:33:29;94854.81;;;28.23;36.93
31337;BME280;22846;42.654;23.314;2022-07-23T05:35:59;94863.69;;;28.27;37.10
31337;BME280;22846;42.654;23.314;2022-07-23T05:38:25;94861.25;;;28.29;37.07
31337;BME280;22846;42.654;23.314;2022-07-23T05:40:50;94860.31;;;28.32;36.98
31337;BME280;22846;42.654;23.314;2022-07-23T05:43:16;94861.84;;;28.33;36.83
31337;BME280;22846;42.654;23.314;2022-07-23T05:45:41;94857.41;;;28.35;36.88
31337;BME280;22846;42.654;23.314;2022-07-23T05:48:06;94858.94;;;28.36;36.83
31337;BME280;22846;42.654;23.314;2022-07-23T05:50:32;94861.53;;;28.40;36.81
31337;BME280;22846;42.654;23.314;2022-07-23T05:52:57;94864.91;;;28.44;36.79
31337;BME280;22846;42.654;23.314;2022-07-23T05:55:22;94858.19;;;28.45;36.93
31337;BME280;22846;42.654;23.314;2022-07-23T05:57:48;94857.25;;;28.48;36.84
31337;BME280;22846;42.654;23.314;2022-07-23T06:00:13;94865.38;;;28.51;37.02
31337;BME280;22846;42.654;23.314;2022-07-23T06:02:38;94869.66;;;28.52;36.28
31337;BME280;22846;42.654;23.314;2022-07-23T06:05:04;94853.63;;;28.51;36.61
31337;BME280;22846;42.654;23.314;2022-07-23T06:07:30;94861.22;;;28.47;35.74
31337;BME280;22846;42.654;23.314;2022-07-23T06:09:55;94855.44;;;28.36;35.24
31337;BME280;22846;42.654;23.314;2022-07-23T06:12:20;94850.22;;;28.20;36.11
31337;BME280;22846;42.654;23.314;2022-07-23T06:14:46;94853.84;;;28.08;36.85
31337;BME280;22846;42.654;23.314;2022-07-23T06:17:13;94849.69;;;27.95;37.35
31337;BME280;22846;42.654;23.314;2022-07-23T06:19:38;94848.94;;;27.85;37.60
31337;BME280;22846;42.654;23.314;2022-07-23T06:22:04;94847.69;;;27.77;37.70
31337;BME280;22846;42.654;23.314;2022-07-23T06:24:29;94849.94;;;27.70;37.87
31337;BME280;22846;42.654;23.314;2022-07-23T06:26:54;94844.75;;;27.63;38.23
31337;BME280;22846;42.654;23.314;2022-07-23T06:29:19;94854.72;;;27.57;38.34
31337;BME280;22846;42.654;23.314;2022-07-23T06:31:45;94842.38;;;27.52;38.38
31337;BME280;22846;42.654;23.314;2022-07-23T06:34:10;94850.00;;;27.48;38.65
31337;BME280;22846;42.654;23.314;2022-07-23T06:36:35;94850.88;;;27.45;38.54
31337;BME280;22846;42.654;23.314;2022-07-23T06:39:01;94851.03;;;27.42;39.06
31337;BME280;22846;42.654;23.314;2022-07-23T06:41:26;94854.66;;;27.39;39.19
31337;BME280;22846;42.654;23.314;2022-07-23T06:43:51;94848.56;;;27.35;39.17
31337;BME280;22846;42.654;23.314;2022-07-23T06:46:16;94851.75;;;27.33;39.22
31337;BME280;22846;42.654;23.314;2022-07-23T06:48:42;94850.38;;;27.29;39.27
31337;BME280;22846;42.654;23.314;2022-07-23T06:51:07;94845.03;;;27.26;39.50
31337;BME280;22846;42.654;23.314;2022-07-23T06:53:32;94842.72;;;27.24;39.42
31337;BME280;22846;42.654;23.314;2022-07-23T06:55:57;94847.13;;;27.22;39.74
31337;BME280;22846;42.654;23.314;2022-07-23T06:58:23;94837.81;;;27.19;39.67
31337;BME280;22846;42.654;23.314;2022-07-23T07:00:48;94840.25;;;27.17;39.65
31337;BME280;22846;42.654;23.314;2022-07-23T07:03:13;94846.94;;;27.16;39.81
31337;BME280;22846;42.654;23.314;2022-07-23T07:05:39;94845.88;;;27.14;39.77
31337;BME280;22846;42.654;23.314;2022-07-23T07:08:07;94842.03;;;27.11;39.89
31337;BME280;22846;42.654;23.314;2022-07-23T07:10:32;94842.47;;;27.10;39.85
31337;BME280;22846;42.654;23.314;2022-07-23T07:12:57;94840.19;;;27.08;40.38
31337;BME280;22846;42.654;23.314;2022-07-23T07:15:22;94837.59;;;27.05;40.05
31337;BME280;22846;42.654;23.314;2022-07-23T07:17:48;94843.81;;;27.05;40.53
31337;BME280;22846;42.654;23.314;2022-07-23T07:20:13;94839.56;;;27.04;40.46
31337;BME280;22846;42.654;23.314;2022-07-23T07:22:38;94827.81;;;27.04;40.26
31337;BME280;22846;42.654;23.314;2022-07-23T07:25:04;94802.25;;;26.85;40.37
31337;BME280;22846;42.654;23.314;2022-07-23T07:27:30;94831.03;;;27.02;40.32
31337;BME280;22846;42.654;23.314;2022-07-23T07:29:55;94830.25;;;27.02;40.58
31337;BME280;22846;42.654;23.314;2022-07-23T07:32:20;94821.25;;;27.01;40.60
31337;BME280;22846;42.654;23.314;2022-07-23T07:34:46;94821.25;;;27.01;40.55
31337;BME280;22846;42.654;23.314;2022-07-23T07:37:11;94822.44;;;27.00;40.50
31337;BME280;22846;42.654;23.314;2022-07-23T07:39:36;94819.69;;;27.00;40.93
31337;BME280;22846;42.654;23.314;2022-07-23T07:42:01;94817.41;;;26.99;41.43
31337;BME280;22846;42.654;23.314;2022-07-23T07:44:27;94815.41;;;26.99;41.42
31337;BME280;22846;42.654;23.314;2022-07-23T07:46:52;94810.41;;;26.98;41.73
31337;BME280;22846;42.654;23.314;2022-07-23T07:49:18;94818.31;;;26.96;41.75
31337;BME280;22846;42.654;23.314;2022-07-23T07:51:44;94814.81;;;26.95;41.58
31337;BME280;22846;42.654;23.314;2022-07-23T07:54:09;94821.38;;;26.98;42.05
31337;BME280;22846;42.654;23.314;2022-07-23T07:56:35;94813.13;;;26.98;41.69
31337;BME280;22846;42.654;23.314;2022-07-23T07:59:00;94811.16;;;26.98;41.96
31337;BME280;22846;42.654;23.314;2022-07-23T08:01:26;94813.13;;;26.98;41.76
31337;BME280;22846;42.654;23.314;2022-07-23T08:03:51;94803.38;;;26.97;41.67
31337;BME280;22846;42.654;23.314;2022-07-23T08:06:16;94805.34;;;26.96;41.80
31337;BME280;22846;42.654;23.314;2022-07-23T08:08:42;94814.34;;;26.97;41.71
31337;BME280;22846;42.654;23.314;2022-07-23T08:11:07;94804.59;;;26.96;41.98
31337;BME280;22846;42.654;23.314;2022-07-23T08:13:33;94803.84;;;26.95;41.95
31337;BME280;22846;42.654;23.314;2022-07-23T08:15:58;94810.81;;;26.96;41.50
31337;BME280;22846;42.654;23.314;2022-07-23T08:18:23;94804.59;;;26.96;41.99
31337;BME280;22846;42.654;23.314;2022-07-23T08:20:48;94803.06;;;26.95;41.77
31337;BME280;22846;42.654;23.314;2022-07-23T08:23:14;94807.00;;;26.94;42.13
31337;BME280;22846;42.654;23.314;2022-07-23T08:25:41;94798.34;;;26.95;41.83
31337;BME280;22846;42.654;23.314;2022-07-23T08:28:08;94804.25;;;26.94;41.87
31337;BME280;22846;42.654;23.314;2022-07-23T08:30:34;94800.75;;;26.93;41.93
31337;BME280;22846;42.654;23.314;2022-07-23T08:33:00;94796.81;;;26.94;42.06
31337;BME280;22846;42.654;23.314;2022-07-23T08:35:27;94796.81;;;26.94;41.94
31337;BME280;22846;42.654;23.314;2022-07-23T08:37:53;94799.22;;;26.92;41.75
31337;BME280;22846;42.654;23.314;2022-07-23T08:40:18;94793.75;;;26.92;41.92
31337;BME280;22846;42.654;23.314;2022-07-23T08:42:44;94800.00;;;26.93;41.86
31337;BME280;22846;42.654;23.314;2022-07-23T08:45:12;94796.50;;;26.92;41.97
31337;BME280;22846;42.654;23.314;2022-07-23T08:47:37;94791.75;;;26.93;42.18
31337;BME280;22846;42.654;23.314;2022-07-23T08:50:03;94804.25;;;26.94;42.02
31337;BME280;22846;42.654;23.314;2022-07-23T08:52:30;94791.75;;;26.93;42.21
31337;BME280;22846;42.654;23.314;2022-07-23T08:54:55;94793.28;;;26.94;42.16
31337;BME280;22846;42.654;23.314;2022-07-23T08:57:21;94788.59;;;26.94;41.76
31337;BME280;22846;42.654;23.314;2022-07-23T08:59:46;94783.53;;;26.93;42.05
31337;BME280;22846;42.654;23.314;2022-07-23T09:02:12;94796.03;;;26.94;42.20
31337;BME280;22846;42.654;23.314;2022-07-23T09:04:37;94788.25;;;26.92;42.18
31337;BME280;22846;42.654;23.314;2022-07-23T09:07:02;94787.47;;;26.92;42.16
31337;BME280;22846;42.654;23.314;2022-07-23T09:09:28;94779.72;;;26.90;42.10
31337;BME280;22846;42.654;23.314;2022-07-23T09:12:05;94785.97;;;26.91;42.07
31337;BME280;22846;42.654;23.314;2022-07-23T09:17:12;94778.97;;;26.90;42.20
31337;BME280;22846;42.654;23.314;2022-07-23T09:19:38;94791.47;;;26.91;42.39
31337;BME280;22846;42.654;23.314;2022-07-23T09:22:22;94782.00;;;26.92;42.30
31337;BME280;22846;42.654;23.314;2022-07-23T09:30:32;94771.66;;;26.96;43.26
31337;BME280;22846;42.654;23.314;2022-07-23T09:33:06;94766.19;;;26.96;43.00
31337;BME280;22846;42.654;23.314;2022-07-23T09:35:44;94762.97;;;26.97;43.64
31337;BME280;22846;42.654;23.314;2022-07-23T09:38:10;94762.22;;;26.97;42.47
31337;BME280;22846;42.654;23.314;2022-07-23T09:40:36;94753.22;;;26.96;41.33
31337;BME280;22846;42.654;23.314;2022-07-23T09:43:01;94752.47;;;26.96;40.67
31337;BME280;22846;42.654;23.314;2022-07-23T09:45:26;94747.44;;;26.94;40.91
31337;BME280;22846;42.654;23.314;2022-07-23T09:47:51;94742.72;;;26.95;41.34
31337;BME280;22846;42.654;23.314;2022-07-23T09:50:34;94743.91;;;26.94;41.55
31337;BME280;22846;42.654;23.314;2022-07-23T09:52:59;94761.91;;;26.95;40.17
31337;BME280;22846;42.654;23.314;2022-07-23T09:55:30;94754.31;;;26.99;41.13
31337;BME280;22846;42.654;23.314;2022-07-23T09:57:59;94759.25;;;27.04;38.27
31337;BME280;22846;42.654;23.314;2022-07-23T10:00:24;94752.25;;;27.12;38.27
31337;BME280;22846;42.654;23.314;2022-07-23T10:02:50;94747.84;;;27.14;36.66
31337;BME280;22846;42.654;23.314;2022-07-23T10:05:16;94747.22;;;27.10;37.33
31337;BME280;22846;42.654;23.314;2022-07-23T10:07:42;94742.78;;;27.04;37.57
31337;BME280;22846;42.654;23.314;2022-07-23T10:10:08;94743.78;;;26.97;37.81
31337;BME280;22846;42.654;23.314;2022-07-23T10:12:35;94738.13;;;26.92;37.39
31337;BME280;22846;42.654;23.314;2022-07-23T10:15:16;94739.19;;;26.85;36.96
31337;BME280;22846;42.654;23.314;2022-07-23T10:17:42;94733.81;;;26.82;37.75
31337;BME280;22846;42.654;23.314;2022-07-23T10:20:07;94736.25;;;26.80;37.28
31337;BME280;22846;42.654;23.314;2022-07-23T10:22:33;94739.31;;;26.82;38.32
31337;BME280;22846;42.654;23.314;2022-07-23T10:30:22;94726.53;;;26.88;37.11
31337;BME280;22846;42.654;23.314;2022-07-23T10:35:24;94729.00;;;26.95;35.49
31337;BME280;22846;42.654;23.314;2022-07-23T10:37:51;94721.41;;;26.99;33.84
31337;BME280;22846;42.654;23.314;2022-07-23T10:40:20;94722.03;;;27.03;33.29
31337;BME280;22846;42.654;23.314;2022-07-23T10:42:47;94713.50;;;27.01;32.63
31337;BME280;22846;42.654;23.314;2022-07-23T10:45:23;94709.97;;;27.00;32.45
31337;BME280;22846;42.654;23.314;2022-07-23T10:47:49;94714.72;;;27.00;32.90
31337;BME280;22846;42.654;23.314;2022-07-23T10:50:21;94710.44;;;26.99;32.68
31337;BME280;22846;42.654;23.314;2022-07-23T10:57:59;94700.03;;;26.94;32.09
31337;BME280;22846;42.654;23.314;2022-07-23T11:00:28;94695.16;;;26.89;33.17
31337;BME280;22846;42.654;23.314;2022-07-23T11:02:55;94693.75;;;26.84;33.88
31337;BME280;22846;42.654;23.314;2022-07-23T11:06:03;94692.38;;;26.80;34.46
31337;BME280;22846;42.654;23.314;2022-07-23T11:08:10;94683.38;;;26.79;34.15
31337;BME280;22846;42.654;23.314;2022-07-23T11:24:07;94668.91;;;26.79;37.39
31337;BME280;22846;42.654;23.314;2022-07-23T11:32:04;94660.34;;;26.77;38.04
31337;BME280;22846;42.654;23.314;2022-07-23T11:34:39;94665.09;;;26.76;38.32
31337;BME280;22846;42.654;23.314;2022-07-23T11:37:06;94665.09;;;26.76;38.75
31337;BME280;22846;42.654;23.314;2022-07-23T11:39:31;94660.69;;;26.79;38.78
31337;BME280;22846;42.654;23.314;2022-07-23T11:41:57;94655.94;;;26.79;38.47
31337;BME280;22846;42.654;23.314;2022-07-23T11:44:24;94647.72;;;26.79;37.74
31337;BME280;22846;42.654;23.314;2022-07-23T11:46:58;94648.03;;;26.81;36.99
31337;BME280;22846;42.654;23.314;2022-07-23T11:49:24;94651.56;;;26.82;37.46
31337;BME280;22846;42.654;23.314;2022-07-23T11:52:09;94644.09;;;26.82;37.60
31337;BME280;22846;42.654;23.314;2022-07-23T11:54:35;94648.50;;;26.80;37.85
31337;BME280;22846;42.654;23.314;2022-07-23T11:57:01;94639.50;;;26.79;38.21
31337;BME280;22846;42.654;23.314;2022-07-23T11:59:28;94634.00;;;26.79;38.68
31337;BME280;22846;42.654;23.314;2022-07-23T12:01:59;94634.31;;;26.81;38.92
31337;BME280;22846;42.654;23.314;2022-07-23T12:04:25;94633.44;;;26.84;38.81
31337;BME280;22846;42.654;23.314;2022-07-23T12:07:01;94641.06;;;26.89;38.70
31337;BME280;22846;42.654;23.314;2022-07-23T12:09:27;94633.16;;;26.91;39.01
31337;BME280;22846;42.654;23.314;2022-07-23T12:11:58;94630.84;;;26.90;39.14
31337;BME280;22846;42.654;23.314;2022-07-23T12:14:24;94639.09;;;26.90;39.42
31337;BME280;22846;42.654;23.314;2022-07-23T12:17:08;94630.09;;;26.89;39.32
31337;BME280;22846;42.654;23.314;2022-07-23T12:19:34;94623.84;;;26.89;40.07
31337;BME280;22846;42.654;23.314;2022-07-23T12:21:59;94629.75;;;26.87;40.00
31337;BME280;22846;42.654;23.314;2022-07-23T12:24:25;94619.25;;;26.86;40.15
31337;BME280;22846;42.654;23.314;2022-07-23T12:27:11;94619.72;;;26.84;40.01
31337;BME280;22846;42.654;23.314;2022-07-23T12:29:38;94622.47;;;26.84;40.20
31337;BME280;22846;42.654;23.314;2022-07-23T12:32:16;94616.97;;;26.84;41.14
31337;BME280;22846;42.654;23.314;2022-07-23T12:34:42;94611.94;;;26.83;41.20
31337;BME280;22846;42.654;23.314;2022-07-23T12:37:07;94613.78;;;26.86;40.21
31337;BME280;22846;42.654;23.314;2022-07-23T12:39:32;94604.47;;;26.83;40.03
31337;BME280;22846;42.654;23.314;2022-07-23T12:41:57;94608.28;;;26.86;40.07
31337;BME280;22846;42.654;23.314;2022-07-23T12:44:23;94607.81;;;26.87;39.99
31337;BME280;22846;42.654;23.314;2022-07-23T12:46:54;94606.59;;;26.88;40.21
31337;BME280;22846;42.654;23.314;2022-07-23T12:49:28;94601.13;;;26.88;40.30
31337;BME280;22846;42.654;23.314;2022-07-23T12:51:53;94601.91;;;26.89;40.52
31337;BME280;22846;42.654;23.314;2022-07-23T12:54:19;94601.44;;;26.90;40.95
31337;BME280;22846;42.654;23.314;2022-07-23T12:56:51;94594.75;;;26.91;40.65
31337;BME280;22846;42.654;23.314;2022-07-23T12:59:17;94599.75;;;26.93;40.51
31337;BME280;22846;42.654;23.314;2022-07-23T13:01:42;94590.31;;;26.94;39.85
31337;BME280;22846;42.654;23.314;2022-07-23T13:04:24;94599.91;;;26.89;40.00
31337;BME280;22846;42.654;23.314;2022-07-23T13:09:18;94599.00;;;26.83;39.78
31337;BME280;22846;42.654;23.314;2022-07-23T13:11:45;94593.97;;;26.82;39.80
31337;BME280;22846;42.654;23.314;2022-07-23T13:14:11;94587.38;;;26.79;39.72
31337;BME280;22846;42.654;23.314;2022-07-23T13:16:38;94588.31;;;26.76;39.89
31337;BME280;22846;42.654;23.314;2022-07-23T13:19:04;94590.28;;;26.76;40.04
31337;BME280;22846;42.654;23.314;2022-07-23T13:21:30;94592.59;;;26.77;40.72
31337;BME280;22846;42.654;23.314;2022-07-23T13:23:56;94594.56;;;26.77;40.39
31337;BME280;22846;42.654;23.314;2022-07-23T13:26:21;94585.56;;;26.76;40.76
31337;BME280;22846;42.654;23.314;2022-07-23T13:28:47;94587.84;;;26.78;40.70